sensor_id;sensor_type;location;lat;lon;timestamp;P1;durP1;ratioP1;P2;durP2;ratioP2
4533;SDS011;2279;51.448;7.306;2023-06-14T00:01:20;7.10;;;6.40;;
4533;SDS011;2279;51.448;7.306;2023-06-14T00:03:47;7.20;;;6.50;;
4533;SDS011;2279;51.448;7.306;2023-06-14T00:06:13;6.80;;;6.20;;
4533;SDS011;2279;51.448;7.306;2023-06-14T00:08:39;7.30;;;6.43;;
4533;SDS011;2279;51.448;7.306;2023-06-14T00:11:06;9.53;;;5.73;;
4533;SDS011;2279;51.448;7.306;2023-06-14T00:13:32;9.13;;;6.73;;
4533;SDS011;2279;51.448;7.306;2023-06-14T00:15:58;6.93;;;6.03;;
4533;SDS011;2279;51.448;7.306;2023-06-14T00:18:24;6.97;;;5.90;;
4533;SDS011;2279;51.448;7.306;2023-06-14T00:20:54;7.27;;;6.67;;
4533;SDS011;2279;51.448;7.306;2023-06-14T00:23:20;7.47;;;6.70;;
4533;SDS011;2279;51.448;7.306;2023-06-14T00:25:46;7.37;;;6.70;;
4533;SDS011;2279;51.448;7.306;2023-06-14T00:28:12;10.43;;;7.63;;
4533;SDS011;2279;51.448;7.306;2023-06-14T00:30:38;6.63;;;6.00;;
4533;SDS011;2279;51.448;7.306;2023-06-14T00:33:05;7.00;;;6.30;;
4533;SDS011;2279;51.448;7.306;2023-06-14T00:35:31;6.83;;;6.23;;
4533;SDS011;2279;51.448;7.306;2023-06-14T00:37:57;7.23;;;5.70;;
4533;SDS011;2279;51.448;7.306;2023-06-14T00:40:24;14.40;;;6.60;;
4533;SDS011;2279;51.448;7.306;2023-06-14T00:42:50;8.00;;;6.47;;
4533;SDS011;2279;51.448;7.306;2023-06-14T00:45:16;7.60;;;6.63;;
4533;SDS011;2279;51.448;7.306;2023-06-14T00:47:42;8.10;;;5.90;;
4533;SDS011;2279;51.448;7.306;2023-06-14T00:50:09;7.40;;;6.60;;
4533;SDS011;2279;51.448;7.306;2023-06-14T00:52:36;8.33;;;5.97;;
4533;SDS011;2279;51.448;7.306;2023-06-14T00:55:02;6.03;;;5.53;;
4533;SDS011;2279;51.448;7.306;2023-06-14T00:57:30;7.63;;;6.87;;
4533;SDS011;2279;51.448;7.306;2023-06-14T00:59:56;7.47;;;5.90;;
4533;SDS011;2279;51.448;7.306;2023-06-14T01:02:22;6.30;;;5.70;;
4533;SDS011;2279;51.448;7.306;2023-06-14T01:04:49;6.87;;;6.17;;
4533;SDS011;2279;51.448;7.306;2023-06-14T01:07:25;7.17;;;6.10;;
4533;SDS011;2279;51.448;7.306;2023-06-14T01:10:17;6.40;;;5.80;;
4533;SDS011;2279;51.448;7.306;2023-06-14T01:12:59;6.80;;;6.10;;
4533;SDS011;2279;51.448;7.306;2023-06-14T01:15:29;7.40;;;5.20;;
4533;SDS011;2279;51.448;7.306;2023-06-14T01:17:56;5.47;;;4.97;;
4533;SDS011;2279;51.448;7.306;2023-06-14T01:20:28;6.00;;;5.50;;
4533;SDS011;2279;51.448;7.306;2023-06-14T01:22:54;6.60;;;6.00;;
4533;SDS011;2279;51.448;7.306;2023-06-14T01:25:21;7.10;;;5.60;;
4533;SDS011;2279;51.448;7.306;2023-06-14T01:27:57;6.70;;;5.40;;
4533;SDS011;2279;51.448;7.306;2023-06-14T01:30:24;6.20;;;5.60;;
4533;SDS011;2279;51.448;7.306;2023-06-14T01:32:50;10.07;;;5.87;;
4533;SDS011;2279;51.448;7.306;2023-06-14T01:35:17;6.63;;;6.10;;
4533;SDS011;2279;51.448;7.306;2023-06-14T01:37:43;6.30;;;5.70;;
4533;SDS011;2279;51.448;7.306;2023-06-14T01:40:09;5.93;;;5.20;;
4533;SDS011;2279;51.448;7.306;2023-06-14T01:42:36;6.57;;;5.87;;
4533;SDS011;2279;51.448;7.306;2023-06-14T01:45:06;5.57;;;5.17;;
4533;SDS011;2279;51.448;7.306;2023-06-14T01:47:32;7.00;;;6.27;;
4533;SDS011;2279;51.448;7.306;2023-06-14T01:50:00;7.20;;;6.23;;
4533;SDS011;2279;51.448;7.306;2023-06-14T01:52:27;8.50;;;5.73;;
4533;SDS011;2279;51.448;7.306;2023-06-14T01:54:53;7.70;;;5.47;;
4533;SDS011;2279;51.448;7.306;2023-06-14T01:57:19;6.77;;;5.67;;
4533;SDS011;2279;51.448;7.306;2023-06-14T01:59:46;7.10;;;6.10;;
4533;SDS011;2279;51.448;7.306;2023-06-14T02:02:13;6.90;;;6.20;;
4533;SDS011;2279;51.448;7.306;2023-06-14T02:04:39;8.10;;;5.83;;
4533;SDS011;2279;51.448;7.306;2023-06-14T02:07:05;7.57;;;5.73;;
4533;SDS011;2279;51.448;7.306;2023-06-14T02:09:31;6.97;;;5.90;;
4533;SDS011;2279;51.448;7.306;2023-06-14T02:11:58;8.93;;;6.30;;
4533;SDS011;2279;51.448;7.306;2023-06-14T02:14:24;6.30;;;5.70;;
4533;SDS011;2279;51.448;7.306;2023-06-14T02:16:51;6.93;;;5.70;;
4533;SDS011;2279;51.448;7.306;2023-06-14T02:19:18;7.03;;;5.77;;
4533;SDS011;2279;51.448;7.306;2023-06-14T02:21:44;6.93;;;5.60;;
4533;SDS011;2279;51.448;7.306;2023-06-14T02:24:10;8.53;;;5.77;;
4533;SDS011;2279;51.448;7.306;2023-06-14T02:26:36;9.07;;;5.33;;
4533;SDS011;2279;51.448;7.306;2023-06-14T02:29:03;6.00;;;5.40;;
4533;SDS011;2279;51.448;7.306;2023-06-14T02:31:30;5.97;;;5.50;;
4533;SDS011;2279;51.448;7.306;2023-06-14T02:33:56;6.23;;;5.50;;
4533;SDS011;2279;51.448;7.306;2023-06-14T02:36:22;5.90;;;5.30;;
4533;SDS011;2279;51.448;7.306;2023-06-14T02:38:48;8.07;;;6.20;;
4533;SDS011;2279;51.448;7.306;2023-06-14T02:41:14;10.53;;;5.73;;
4533;SDS011;2279;51.448;7.306;2023-06-14T02:43:40;10.00;;;6.40;;
4533;SDS011;2279;51.448;7.306;2023-06-14T02:46:06;13.63;;;6.30;;
4533;SDS011;2279;51.448;7.306;2023-06-14T02:48:32;11.03;;;6.80;;
4533;SDS011;2279;51.448;7.306;2023-06-14T02:50:58;10.90;;;5.17;;
4533;SDS011;2279;51.448;7.306;2023-06-14T02:53:24;16.50;;;6.60;;
4533;SDS011;2279;51.448;7.306;2023-06-14T02:55:50;10.03;;;5.63;;
4533;SDS011;2279;51.448;7.306;2023-06-14T02:58:17;31.27;;;6.00;;
4533;SDS011;2279;51.448;7.306;2023-06-14T03:00:43;10.07;;;5.10;;
4533;SDS011;2279;51.448;7.306;2023-06-14T03:03:10;7.10;;;5.57;;
4533;SDS011;2279;51.448;7.306;2023-06-14T03:05:44;7.17;;;4.93;;
4533;SDS011;2279;51.448;7.306;2023-06-14T03:08:14;5.63;;;5.13;;
4533;SDS011;2279;51.448;7.306;2023-06-14T03:10:50;6.40;;;5.27;;
4533;SDS011;2279;51.448;7.306;2023-06-14T03:13:16;13.20;;;6.50;;
4533;SDS011;2279;51.448;7.306;2023-06-14T03:15:46;6.43;;;5.73;;
4533;SDS011;2279;51.448;7.306;2023-06-14T03:18:12;6.63;;;5.93;;
4533;SDS011;2279;51.448;7.306;2023-06-14T03:20:40;6.63;;;4.83;;
4533;SDS011;2279;51.448;7.306;2023-06-14T03:23:07;6.43;;;4.90;;
4533;SDS011;2279;51.448;7.306;2023-06-14T03:25:34;7.90;;;6.17;;
4533;SDS011;2279;51.448;7.306;2023-06-14T03:28:00;9.30;;;5.23;;
4533;SDS011;2279;51.448;7.306;2023-06-14T03:30:27;6.13;;;5.17;;
4533;SDS011;2279;51.448;7.306;2023-06-14T03:32:53;6.40;;;4.80;;
4533;SDS011;2279;51.448;7.306;2023-06-14T03:35:20;5.00;;;4.60;;
4533;SDS011;2279;51.448;7.306;2023-06-14T03:37:46;6.13;;;5.40;;
4533;SDS011;2279;51.448;7.306;2023-06-14T03:40:13;10.23;;;5.33;;
4533;SDS011;2279;51.448;7.306;2023-06-14T03:42:39;5.80;;;5.20;;
4533;SDS011;2279;51.448;7.306;2023-06-14T03:45:05;5.77;;;5.27;;
4533;SDS011;2279;51.448;7.306;2023-06-14T03:47:32;5.57;;;4.50;;
4533;SDS011;2279;51.448;7.306;2023-06-14T03:49:58;6.73;;;4.57;;
4533;SDS011;2279;51.448;7.306;2023-06-14T03:52:25;5.47;;;4.50;;
4533;SDS011;2279;51.448;7.306;2023-06-14T03:54:51;6.20;;;5.00;;
4533;SDS011;2279;51.448;7.306;2023-06-14T03:57:17;4.60;;;4.10;;
4533;SDS011;2279;51.448;7.306;2023-06-14T03:59:43;3.63;;;3.23;;
4533;SDS011;2279;51.448;7.306;2023-06-14T04:02:09;4.23;;;3.83;;
4533;SDS011;2279;51.448;7.306;2023-06-14T04:04:35;5.57;;;4.30;;
4533;SDS011;2279;51.448;7.306;2023-06-14T04:07:01;4.53;;;4.13;;
4533;SDS011;2279;51.448;7.306;2023-06-14T04:09:31;5.40;;;4.40;;
4533;SDS011;2279;51.448;7.306;2023-06-14T04:11:57;5.00;;;4.40;;
4533;SDS011;2279;51.448;7.306;2023-06-14T04:14:23;4.50;;;3.77;;
4533;SDS011;2279;51.448;7.306;2023-06-14T04:16:49;5.00;;;4.50;;
4533;SDS011;2279;51.448;7.306;2023-06-14T04:19:15;5.20;;;4.37;;
4533;SDS011;2279;51.448;7.306;2023-06-14T04:21:41;4.83;;;4.43;;
4533;SDS011;2279;51.448;7.306;2023-06-14T04:24:07;5.80;;;4.33;;
4533;SDS011;2279;51.448;7.306;2023-06-14T04:26:41;5.00;;;4.50;;
4533;SDS011;2279;51.448;7.306;2023-06-14T04:29:09;10.20;;;4.43;;
4533;SDS011;2279;51.448;7.306;2023-06-14T04:31:39;5.93;;;4.33;;
4533;SDS011;2279;51.448;7.306;2023-06-14T04:34:05;5.63;;;4.23;;
4533;SDS011;2279;51.448;7.306;2023-06-14T04:36:34;5.90;;;4.40;;
4533;SDS011;2279;51.448;7.306;2023-06-14T04:39:03;4.80;;;4.20;;
4533;SDS011;2279;51.448;7.306;2023-06-14T04:41:30;4.10;;;3.70;;
4533;SDS011;2279;51.448;7.306;2023-06-14T04:43:57;6.83;;;4.10;;
4533;SDS011;2279;51.448;7.306;2023-06-14T04:46:26;5.63;;;4.87;;
4533;SDS011;2279;51.448;7.306;2023-06-14T04:48:53;4.37;;;3.97;;
4533;SDS011;2279;51.448;7.306;2023-06-14T04:51:19;4.13;;;3.83;;
4533;SDS011;2279;51.448;7.306;2023-06-14T04:53:47;4.83;;;4.40;;
4533;SDS011;2279;51.448;7.306;2023-06-14T04:56:14;7.03;;;4.67;;
4533;SDS011;2279;51.448;7.306;2023-06-14T04:58:41;6.13;;;4.00;;
4533;SDS011;2279;51.448;7.306;2023-06-14T05:01:08;4.40;;;3.60;;
4533;SDS011;2279;51.448;7.306;2023-06-14T05:03:34;4.80;;;4.00;;
4533;SDS011;2279;51.448;7.306;2023-06-14T05:06:00;4.60;;;4.20;;
4533;SDS011;2279;51.448;7.306;2023-06-14T05:08:26;4.53;;;4.13;;
4533;SDS011;2279;51.448;7.306;2023-06-14T05:10:52;6.40;;;4.87;;
4533;SDS011;2279;51.448;7.306;2023-06-14T05:13:18;7.60;;;4.93;;
4533;SDS011;2279;51.448;7.306;2023-06-14T05:15:46;10.20;;;4.67;;
4533;SDS011;2279;51.448;7.306;2023-06-14T05:18:12;5.37;;;4.70;;
4533;SDS011;2279;51.448;7.306;2023-06-14T05:20:40;6.33;;;4.90;;
4533;SDS011;2279;51.448;7.306;2023-06-14T05:23:07;6.10;;;3.90;;
4533;SDS011;2279;51.448;7.306;2023-06-14T05:25:33;4.50;;;4.13;;
4533;SDS011;2279;51.448;7.306;2023-06-14T05:27:59;4.30;;;3.90;;
4533;SDS011;2279;51.448;7.306;2023-06-14T05:30:25;4.90;;;4.50;;
4533;SDS011;2279;51.448;7.306;2023-06-14T05:32:51;5.40;;;4.37;;
4533;SDS011;2279;51.448;7.306;2023-06-14T05:35:17;6.50;;;4.27;;
4533;SDS011;2279;51.448;7.306;2023-06-14T05:37:44;5.77;;;3.57;;
4533;SDS011;2279;51.448;7.306;2023-06-14T05:40:10;4.87;;;3.63;;
4533;SDS011;2279;51.448;7.306;2023-06-14T05:42:36;4.80;;;4.40;;
4533;SDS011;2279;51.448;7.306;2023-06-14T05:45:02;4.37;;;3.97;;
4533;SDS011;2279;51.448;7.306;2023-06-14T05:47:28;5.27;;;4.10;;
4533;SDS011;2279;51.448;7.306;2023-06-14T05:49:54;4.17;;;3.87;;
4533;SDS011;2279;51.448;7.306;2023-06-14T05:52:20;7.50;;;3.93;;
4533;SDS011;2279;51.448;7.306;2023-06-14T05:54:46;9.57;;;4.07;;
4533;SDS011;2279;51.448;7.306;2023-06-14T05:57:12;4.67;;;4.00;;
4533;SDS011;2279;51.448;7.306;2023-06-14T05:59:38;4.03;;;3.70;;
4533;SDS011;2279;51.448;7.306;2023-06-14T06:02:05;7.37;;;4.03;;
4533;SDS011;2279;51.448;7.306;2023-06-14T06:04:31;6.77;;;4.50;;
4533;SDS011;2279;51.448;7.306;2023-06-14T06:06:57;6.50;;;3.80;;
4533;SDS011;2279;51.448;7.306;2023-06-14T06:09:23;4.00;;;3.70;;
4533;SDS011;2279;51.448;7.306;2023-06-14T06:11:48;4.03;;;3.63;;
4533;SDS011;2279;51.448;7.306;2023-06-14T06:14:14;6.17;;;3.80;;
4533;SDS011;2279;51.448;7.306;2023-06-14T06:16:40;4.37;;;3.97;;
4533;SDS011;2279;51.448;7.306;2023-06-14T06:19:06;4.73;;;3.77;;
4533;SDS011;2279;51.448;7.306;2023-06-14T06:21:32;5.73;;;3.97;;
4533;SDS011;2279;51.448;7.306;2023-06-14T06:23:58;5.50;;;3.97;;
4533;SDS011;2279;51.448;7.306;2023-06-14T06:26:28;4.03;;;3.70;;
4533;SDS011;2279;51.448;7.306;2023-06-14T06:28:54;4.33;;;3.10;;
4533;SDS011;2279;51.448;7.306;2023-06-14T06:31:22;5.80;;;3.50;;
4533;SDS011;2279;51.448;7.306;2023-06-14T06:33:48;6.93;;;3.50;;
4533;SDS011;2279;51.448;7.306;2023-06-14T06:36:14;4.90;;;3.60;;
4533;SDS011;2279;51.448;7.306;2023-06-14T06:38:40;3.83;;;3.53;;
4533;SDS011;2279;51.448;7.306;2023-06-14T06:41:06;6.27;;;3.40;;
4533;SDS011;2279;51.448;7.306;2023-06-14T06:43:32;3.83;;;3.10;;
4533;SDS011;2279;51.448;7.306;2023-06-14T06:45:58;3.37;;;3.07;;
4533;SDS011;2279;51.448;7.306;2023-06-14T06:48:24;3.23;;;2.93;;
4533;SDS011;2279;51.448;7.306;2023-06-14T06:50:50;3.37;;;3.07;;
4533;SDS011;2279;51.448;7.306;2023-06-14T06:53:17;3.00;;;2.80;;
4533;SDS011;2279;51.448;7.306;2023-06-14T06:55:43;6.47;;;3.33;;
4533;SDS011;2279;51.448;7.306;2023-06-14T06:58:09;3.77;;;3.30;;
4533;SDS011;2279;51.448;7.306;2023-06-14T07:00:35;8.03;;;3.20;;
4533;SDS011;2279;51.448;7.306;2023-06-14T07:03:01;3.70;;;3.40;;
4533;SDS011;2279;51.448;7.306;2023-06-14T07:05:29;3.10;;;2.70;;
4533;SDS011;2279;51.448;7.306;2023-06-14T07:07:55;11.70;;;6.63;;
4533;SDS011;2279;51.448;7.306;2023-06-14T07:10:21;7.67;;;3.43;;
4533;SDS011;2279;51.448;7.306;2023-06-14T07:12:49;3.63;;;3.33;;
4533;SDS011;2279;51.448;7.306;2023-06-14T07:15:15;7.03;;;3.23;;
4533;SDS011;2279;51.448;7.306;2023-06-14T07:17:41;3.50;;;2.97;;
4533;SDS011;2279;51.448;7.306;2023-06-14T07:20:07;3.33;;;3.07;;
4533;SDS011;2279;51.448;7.306;2023-06-14T07:22:36;14.23;;;3.30;;
4533;SDS011;2279;51.448;7.306;2023-06-14T07:25:02;4.30;;;2.93;;
4533;SDS011;2279;51.448;7.306;2023-06-14T07:27:29;3.00;;;2.80;;
4533;SDS011;2279;51.448;7.306;2023-06-14T07:29:55;7.77;;;3.13;;
4533;SDS011;2279;51.448;7.306;2023-06-14T07:32:21;3.30;;;2.47;;
4533;SDS011;2279;51.448;7.306;2023-06-14T07:34:46;5.97;;;2.93;;
4533;SDS011;2279;51.448;7.306;2023-06-14T07:37:12;6.50;;;3.23;;
4533;SDS011;2279;51.448;7.306;2023-06-14T07:39:38;3.50;;;3.20;;
4533;SDS011;2279;51.448;7.306;2023-06-14T07:42:04;3.30;;;3.00;;
4533;SDS011;2279;51.448;7.306;2023-06-14T07:44:31;2.83;;;2.60;;
4533;SDS011;2279;51.448;7.306;2023-06-14T07:46:57;3.60;;;2.30;;
4533;SDS011;2279;51.448;7.306;2023-06-14T07:49:24;4.77;;;3.00;;
4533;SDS011;2279;51.448;7.306;2023-06-14T07:51:50;3.70;;;3.40;;
4533;SDS011;2279;51.448;7.306;2023-06-14T07:54:18;4.57;;;3.70;;
4533;SDS011;2279;51.448;7.306;2023-06-14T07:56:44;2.73;;;2.53;;
4533;SDS011;2279;51.448;7.306;2023-06-14T07:59:10;7.00;;;3.23;;
4533;SDS011;2279;51.448;7.306;2023-06-14T08:01:36;8.07;;;2.77;;
4533;SDS011;2279;51.448;7.306;2023-06-14T08:04:02;3.43;;;3.07;;
4533;SDS011;2279;51.448;7.306;2023-06-14T08:06:28;4.60;;;3.00;;
4533;SDS011;2279;51.448;7.306;2023-06-14T08:08:54;3.33;;;2.93;;
4533;SDS011;2279;51.448;7.306;2023-06-14T08:11:20;10.50;;;2.80;;
4533;SDS011;2279;51.448;7.306;2023-06-14T08:13:46;3.93;;;2.80;;
4533;SDS011;2279;51.448;7.306;2023-06-14T08:16:12;3.20;;;2.30;;
4533;SDS011;2279;51.448;7.306;2023-06-14T08:18:37;2.40;;;2.20;;
4533;SDS011;2279;51.448;7.306;2023-06-14T08:21:03;7.10;;;2.30;;
4533;SDS011;2279;51.448;7.306;2023-06-14T08:23:29;4.83;;;2.10;;
4533;SDS011;2279;51.448;7.306;2023-06-14T08:25:55;2.40;;;2.20;;
4533;SDS011;2279;51.448;7.306;2023-06-14T08:28:23;2.47;;;1.93;;
4533;SDS011;2279;51.448;7.306;2023-06-14T08:30:49;3.07;;;2.17;;
4533;SDS011;2279;51.448;7.306;2023-06-14T08:33:16;4.77;;;2.27;;
4533;SDS011;2279;51.448;7.306;2023-06-14T08:35:42;2.50;;;2.30;;
4533;SDS011;2279;51.448;7.306;2023-06-14T08:38:08;2.40;;;2.20;;
4533;SDS011;2279;51.448;7.306;2023-06-14T08:40:36;2.70;;;2.20;;
4533;SDS011;2279;51.448;7.306;2023-06-14T08:43:03;2.27;;;2.17;;
4533;SDS011;2279;51.448;7.306;2023-06-14T08:45:29;3.73;;;2.30;;
4533;SDS011;2279;51.448;7.306;2023-06-14T08:47:55;2.80;;;2.13;;
4533;SDS011;2279;51.448;7.306;2023-06-14T08:50:25;2.43;;;2.23;;
4533;SDS011;2279;51.448;7.306;2023-06-14T08:52:54;3.73;;;2.07;;
4533;SDS011;2279;51.448;7.306;2023-06-14T08:55:22;8.30;;;2.37;;
4533;SDS011;2279;51.448;7.306;2023-06-14T08:57:52;2.47;;;2.00;;
4533;SDS011;2279;51.448;7.306;2023-06-14T09:00:19;2.87;;;2.67;;
4533;SDS011;2279;51.448;7.306;2023-06-14T09:02:46;2.80;;;1.97;;
4533;SDS011;2279;51.448;7.306;2023-06-14T09:05:12;1.73;;;1.50;;
4533;SDS011;2279;51.448;7.306;2023-06-14T09:07:41;1.97;;;1.70;;
4533;SDS011;2279;51.448;7.306;2023-06-14T09:10:13;2.23;;;1.73;;
4533;SDS011;2279;51.448;7.306;2023-06-14T09:12:39;2.80;;;1.53;;
4533;SDS011;2279;51.448;7.306;2023-06-14T09:15:05;3.07;;;1.87;;
4533;SDS011;2279;51.448;7.306;2023-06-14T09:17:33;3.73;;;2.33;;
4533;SDS011;2279;51.448;7.306;2023-06-14T09:20:00;1.67;;;1.57;;
4533;SDS011;2279;51.448;7.306;2023-06-14T09:22:29;2.10;;;2.00;;
4533;SDS011;2279;51.448;7.306;2023-06-14T09:24:55;8.73;;;2.03;;
4533;SDS011;2279;51.448;7.306;2023-06-14T09:27:21;1.80;;;1.70;;
4533;SDS011;2279;51.448;7.306;2023-06-14T09:29:47;1.73;;;1.63;;
4533;SDS011;2279;51.448;7.306;2023-06-14T09:32:13;2.27;;;1.40;;
4533;SDS011;2279;51.448;7.306;2023-06-14T09:34:39;1.87;;;1.50;;
4533;SDS011;2279;51.448;7.306;2023-06-14T09:37:05;1.70;;;1.60;;
4533;SDS011;2279;51.448;7.306;2023-06-14T09:39:31;1.73;;;1.63;;
4533;SDS011;2279;51.448;7.306;2023-06-14T09:41:57;2.50;;;1.57;;
4533;SDS011;2279;51.448;7.306;2023-06-14T09:44:23;4.90;;;1.80;;
4533;SDS011;2279;51.448;7.306;2023-06-14T09:46:53;2.27;;;2.07;;
4533;SDS011;2279;51.448;7.306;2023-06-14T09:49:21;3.90;;;3.53;;
4533;SDS011;2279;51.448;7.306;2023-06-14T09:51:49;2.00;;;1.90;;
4533;SDS011;2279;51.448;7.306;2023-06-14T09:54:16;1.93;;;1.70;;
4533;SDS011;2279;51.448;7.306;2023-06-14T09:56:45;2.63;;;1.77;;
4533;SDS011;2279;51.448;7.306;2023-06-14T09:59:12;2.57;;;2.10;;
4533;SDS011;2279;51.448;7.306;2023-06-14T10:01:42;2.90;;;1.77;;
4533;SDS011;2279;51.448;7.306;2023-06-14T10:04:09;3.20;;;2.07;;
4533;SDS011;2279;51.448;7.306;2023-06-14T10:06:43;2.10;;;1.90;;
4533;SDS011;2279;51.448;7.306;2023-06-14T10:09:11;3.93;;;2.10;;
4533;SDS011;2279;51.448;7.306;2023-06-14T10:11:37;4.00;;;1.80;;
4533;SDS011;2279;51.448;7.306;2023-06-14T10:14:08;1.70;;;1.60;;
4533;SDS011;2279;51.448;7.306;2023-06-14T10:23:59;1.60;;;1.50;;
4533;SDS011;2279;51.448;7.306;2023-06-14T10:26:26;2.07;;;1.97;;
4533;SDS011;2279;51.448;7.306;2023-06-14T10:29:10;2.33;;;1.67;;
4533;SDS011;2279;51.448;7.306;2023-06-14T10:31:40;1.83;;;1.73;;
4533;SDS011;2279;51.448;7.306;2023-06-14T10:34:07;3.57;;;1.80;;
4533;SDS011;2279;51.448;7.306;2023-06-14T10:36:33;2.07;;;1.63;;
4533;SDS011;2279;51.448;7.306;2023-06-14T10:41:29;1.63;;;1.53;;
4533;SDS011;2279;51.448;7.306;2023-06-14T10:46:54;7.87;;;1.80;;
4533;SDS011;2279;51.448;7.306;2023-06-14T10:49:36;1.80;;;1.50;;
4533;SDS011;2279;51.448;7.306;2023-06-14T10:52:07;3.57;;;1.63;;
4533;SDS011;2279;51.448;7.306;2023-06-14T10:54:41;1.23;;;1.13;;
4533;SDS011;2279;51.448;7.306;2023-06-14T10:57:20;3.83;;;1.47;;
4533;SDS011;2279;51.448;7.306;2023-06-14T10:59:46;1.70;;;1.60;;
4533;SDS011;2279;51.448;7.306;2023-06-14T11:02:39;3.50;;;1.40;;
4533;SDS011;2279;51.448;7.306;2023-06-14T11:05:14;9.10;;;1.40;;
4533;SDS011;2279;51.448;7.306;2023-06-14T11:07:55;3.13;;;1.40;;
4533;SDS011;2279;51.448;7.306;2023-06-14T11:13:02;1.50;;;1.40;;
4533;SDS011;2279;51.448;7.306;2023-06-14T11:15:32;2.50;;;1.83;;
4533;SDS011;2279;51.448;7.306;2023-06-14T11:18:08;1.40;;;1.30;;
4533;SDS011;2279;51.448;7.306;2023-06-14T11:20:35;3.20;;;1.63;;
4533;SDS011;2279;51.448;7.306;2023-06-14T11:23:01;10.40;;;1.70;;
4533;SDS011;2279;51.448;7.306;2023-06-14T11:25:27;1.97;;;1.87;;
4533;SDS011;2279;51.448;7.306;2023-06-14T11:27:53;1.77;;;1.67;;
4533;SDS011;2279;51.448;7.306;2023-06-14T11:30:23;2.80;;;1.90;;
4533;SDS011;2279;51.448;7.306;2023-06-14T11:32:53;3.30;;;1.70;;
4533;SDS011;2279;51.448;7.306;2023-06-14T11:35:21;2.27;;;2.00;;
4533;SDS011;2279;51.448;7.306;2023-06-14T11:37:54;2.77;;;2.00;;
4533;SDS011;2279;51.448;7.306;2023-06-14T11:40:23;5.53;;;2.13;;
4533;SDS011;2279;51.448;7.306;2023-06-14T11:42:49;3.50;;;1.70;;
4533;SDS011;2279;51.448;7.306;2023-06-14T11:45:18;7.67;;;2.37;;
4533;SDS011;2279;51.448;7.306;2023-06-14T11:47:43;2.57;;;2.27;;
4533;SDS011;2279;51.448;7.306;2023-06-14T11:50:10;2.30;;;2.20;;
4533;SDS011;2279;51.448;7.306;2023-06-14T11:52:36;2.07;;;1.87;;
4533;SDS011;2279;51.448;7.306;2023-06-14T11:55:02;4.10;;;2.00;;
4533;SDS011;2279;51.448;7.306;2023-06-14T11:57:35;2.30;;;2.10;;
4533;SDS011;2279;51.448;7.306;2023-06-14T12:00:06;2.40;;;2.20;;
4533;SDS011;2279;51.448;7.306;2023-06-14T12:02:38;2.30;;;2.20;;
4533;SDS011;2279;51.448;7.306;2023-06-14T12:05:05;2.60;;;2.30;;
4533;SDS011;2279;51.448;7.306;2023-06-14T12:07:36;3.93;;;2.77;;
4533;SDS011;2279;51.448;7.306;2023-06-14T12:12:34;7.47;;;2.50;;
4533;SDS011;2279;51.448;7.306;2023-06-14T12:15:02;2.20;;;2.00;;
4533;SDS011;2279;51.448;7.306;2023-06-14T12:17:31;2.33;;;2.07;;
4533;SDS011;2279;51.448;7.306;2023-06-14T12:19:57;5.70;;;2.07;;
4533;SDS011;2279;51.448;7.306;2023-06-14T12:22:23;2.00;;;1.80;;
4533;SDS011;2279;51.448;7.306;2023-06-14T12:24:49;4.47;;;2.23;;
4533;SDS011;2279;51.448;7.306;2023-06-14T12:27:15;2.53;;;2.30;;
4533;SDS011;2279;51.448;7.306;2023-06-14T12:29:43;5.03;;;1.80;;
4533;SDS011;2279;51.448;7.306;2023-06-14T12:32:10;3.10;;;2.17;;
4533;SDS011;2279;51.448;7.306;2023-06-14T12:34:36;2.30;;;2.20;;
4533;SDS011;2279;51.448;7.306;2023-06-14T12:37:02;5.20;;;2.53;;
4533;SDS011;2279;51.448;7.306;2023-06-14T12:39:29;2.43;;;2.17;;
4533;SDS011;2279;51.448;7.306;2023-06-14T12:41:56;2.90;;;2.43;;
4533;SDS011;2279;51.448;7.306;2023-06-14T12:44:22;2.40;;;2.30;;
4533;SDS011;2279;51.448;7.306;2023-06-14T12:46:49;2.90;;;2.17;;
4533;SDS011;2279;51.448;7.306;2023-06-14T12:49:16;2.27;;;2.17;;
4533;SDS011;2279;51.448;7.306;2023-06-14T12:51:43;2.37;;;2.07;;
4533;SDS011;2279;51.448;7.306;2023-06-14T12:54:09;4.13;;;2.40;;
4533;SDS011;2279;51.448;7.306;2023-06-14T12:56:35;2.10;;;2.00;;
4533;SDS011;2279;51.448;7.306;2023-06-14T12:59:01;2.60;;;2.40;;
4533;SDS011;2279;51.448;7.306;2023-06-14T13:01:27;1.90;;;1.80;;
4533;SDS011;2279;51.448;7.306;2023-06-14T13:03:53;3.40;;;2.63;;
4533;SDS011;2279;51.448;7.306;2023-06-14T13:06:22;2.30;;;2.10;;
4533;SDS011;2279;51.448;7.306;2023-06-14T13:08:49;3.10;;;2.07;;
4533;SDS011;2279;51.448;7.306;2023-06-14T13:11:15;4.20;;;2.40;;
4533;SDS011;2279;51.448;7.306;2023-06-14T13:13:41;2.67;;;2.47;;
4533;SDS011;2279;51.448;7.306;2023-06-14T13:16:07;6.83;;;2.13;;
4533;SDS011;2279;51.448;7.306;2023-06-14T13:18:33;2.60;;;2.40;;
4533;SDS011;2279;51.448;7.306;2023-06-14T13:20:59;5.30;;;2.33;;
4533;SDS011;2279;51.448;7.306;2023-06-14T13:23:26;3.53;;;2.33;;
4533;SDS011;2279;51.448;7.306;2023-06-14T13:25:52;2.20;;;2.10;;
4533;SDS011;2279;51.448;7.306;2023-06-14T13:28:18;3.70;;;1.80;;
4533;SDS011;2279;51.448;7.306;2023-06-14T13:30:45;2.30;;;2.10;;
4533;SDS011;2279;51.448;7.306;2023-06-14T13:33:12;3.80;;;2.50;;
4533;SDS011;2279;51.448;7.306;2023-06-14T13:35:38;3.60;;;2.40;;
4533;SDS011;2279;51.448;7.306;2023-06-14T13:38:04;4.90;;;2.03;;
4533;SDS011;2279;51.448;7.306;2023-06-14T13:40:30;2.37;;;2.17;;
4533;SDS011;2279;51.448;7.306;2023-06-14T13:42:56;3.77;;;1.93;;
4533;SDS011;2279;51.448;7.306;2023-06-14T13:45:22;2.40;;;2.20;;
4533;SDS011;2279;51.448;7.306;2023-06-14T13:47:48;2.40;;;2.30;;
4533;SDS011;2279;51.448;7.306;2023-06-14T13:50:14;2.20;;;2.10;;
4533;SDS011;2279;51.448;7.306;2023-06-14T13:52:41;2.90;;;2.57;;
4533;SDS011;2279;51.448;7.306;2023-06-14T13:55:07;3.07;;;2.17;;
4533;SDS011;2279;51.448;7.306;2023-06-14T13:57:33;4.80;;;2.40;;
4533;SDS011;2279;51.448;7.306;2023-06-14T13:59:59;2.23;;;2.07;;
4533;SDS011;2279;51.448;7.306;2023-06-14T14:02:27;2.40;;;2.30;;
4533;SDS011;2279;51.448;7.306;2023-06-14T14:04:54;3.00;;;2.60;;
4533;SDS011;2279;51.448;7.306;2023-06-14T14:07:20;3.20;;;2.30;;
4533;SDS011;2279;51.448;7.306;2023-06-14T14:09:47;3.63;;;2.60;;
4533;SDS011;2279;51.448;7.306;2023-06-14T14:12:13;2.30;;;2.10;;
4533;SDS011;2279;51.448;7.306;2023-06-14T14:14:39;3.20;;;2.70;;
4533;SDS011;2279;51.448;7.306;2023-06-14T14:17:06;2.47;;;2.37;;
4533;SDS011;2279;51.448;7.306;2023-06-14T14:19:32;2.67;;;2.57;;
4533;SDS011;2279;51.448;7.306;2023-06-14T14:21:58;4.40;;;2.60;;
4533;SDS011;2279;51.448;7.306;2023-06-14T14:24:24;3.07;;;2.50;;
4533;SDS011;2279;51.448;7.306;2023-06-14T14:26:51;3.37;;;3.07;;
4533;SDS011;2279;51.448;7.306;2023-06-14T14:29:18;2.43;;;2.20;;
4533;SDS011;2279;51.448;7.306;2023-06-14T14:31:44;2.97;;;2.77;;
4533;SDS011;2279;51.448;7.306;2023-06-14T14:34:10;2.70;;;2.50;;
4533;SDS011;2279;51.448;7.306;2023-06-14T14:36:36;3.87;;;2.73;;
4533;SDS011;2279;51.448;7.306;2023-06-14T14:39:06;2.70;;;2.50;;
4533;SDS011;2279;51.448;7.306;2023-06-14T14:41:32;3.20;;;2.33;;
4533;SDS011;2279;51.448;7.306;2023-06-14T14:43:58;2.87;;;2.60;;
4533;SDS011;2279;51.448;7.306;2023-06-14T14:46:25;11.60;;;2.90;;
4533;SDS011;2279;51.448;7.306;2023-06-14T14:48:51;2.30;;;2.20;;
4533;SDS011;2279;51.448;7.306;2023-06-14T14:51:17;2.37;;;2.17;;
4533;SDS011;2279;51.448;7.306;2023-06-14T14:53:43;3.80;;;2.40;;
4533;SDS011;2279;51.448;7.306;2023-06-14T14:56:09;5.63;;;2.50;;
4533;SDS011;2279;51.448;7.306;2023-06-14T14:58:36;2.80;;;2.60;;
4533;SDS011;2279;51.448;7.306;2023-06-14T15:01:02;2.57;;;2.40;;
4533;SDS011;2279;51.448;7.306;2023-06-14T15:03:30;3.80;;;2.73;;
4533;SDS011;2279;51.448;7.306;2023-06-14T15:05:56;3.50;;;2.40;;
4533;SDS011;2279;51.448;7.306;2023-06-14T15:08:22;2.90;;;2.70;;
4533;SDS011;2279;51.448;7.306;2023-06-14T15:10:48;2.53;;;2.30;;
4533;SDS011;2279;51.448;7.306;2023-06-14T15:13:14;3.20;;;2.50;;
4533;SDS011;2279;51.448;7.306;2023-06-14T15:15:40;5.03;;;3.00;;
4533;SDS011;2279;51.448;7.306;2023-06-14T15:18:06;3.07;;;2.70;;
4533;SDS011;2279;51.448;7.306;2023-06-14T15:20:32;2.70;;;2.50;;
4533;SDS011;2279;51.448;7.306;2023-06-14T15:22:58;3.23;;;2.63;;
4533;SDS011;2279;51.448;7.306;2023-06-14T15:25:28;3.03;;;2.83;;
4533;SDS011;2279;51.448;7.306;2023-06-14T15:27:54;4.80;;;2.80;;
4533;SDS011;2279;51.448;7.306;2023-06-14T15:30:20;2.57;;;2.47;;
4533;SDS011;2279;51.448;7.306;2023-06-14T15:32:46;3.50;;;2.90;;